sensor_id;sensor_type;location;lat;lon;timestamp;P1;durP1;ratioP1;P2;durP2;ratioP2
77046;SDS011;65977;56.380;44.022;2023-03-14T00:01:15;4.85;;;2.80;;
77046;SDS011;65977;56.380;44.022;2023-03-14T00:03:44;5.45;;;2.58;;
77046;SDS011;65977;56.380;44.022;2023-03-14T00:06:12;3.15;;;2.00;;
77046;SDS011;65977;56.380;44.022;2023-03-14T00:08:40;4.07;;;2.30;;
77046;SDS011;65977;56.380;44.022;2023-03-14T00:11:09;4.53;;;2.00;;
77046;SDS011;65977;56.380;44.022;2023-03-14T00:13:41;3.58;;;2.35;;
77046;SDS011;65977;56.380;44.022;2023-03-14T00:16:09;3.92;;;2.78;;
77046;SDS011;65977;56.380;44.022;2023-03-14T00:18:40;4.43;;;2.80;;
77046;SDS011;65977;56.380;44.022;2023-03-14T00:21:08;3.55;;;2.58;;
77046;SDS011;65977;56.380;44.022;2023-03-14T00:23:36;5.90;;;2.70;;
77046;SDS011;65977;56.380;44.022;2023-03-14T00:26:08;5.85;;;2.67;;
77046;SDS011;65977;56.380;44.022;2023-03-14T00:28:37;3.03;;;2.28;;
77046;SDS011;65977;56.380;44.022;2023-03-14T00:31:05;5.07;;;2.78;;
77046;SDS011;65977;56.380;44.022;2023-03-14T00:33:34;3.97;;;2.08;;
77046;SDS011;65977;56.380;44.022;2023-03-14T00:36:03;2.97;;;1.88;;
77046;SDS011;65977;56.380;44.022;2023-03-14T00:38:32;5.63;;;2.92;;
77046;SDS011;65977;56.380;44.022;2023-03-14T00:41:02;4.82;;;2.95;;
77046;SDS011;65977;56.380;44.022;2023-03-14T00:43:30;5.97;;;2.25;;
77046;SDS011;65977;56.380;44.022;2023-03-14T00:45:57;4.10;;;2.55;;
77046;SDS011;65977;56.380;44.022;2023-03-14T00:48:24;4.35;;;2.83;;
77046;SDS011;65977;56.380;44.022;2023-03-14T00:50:51;5.63;;;2.83;;
77046;SDS011;65977;56.380;44.022;2023-03-14T00:53:18;6.22;;;3.90;;
77046;SDS011;65977;56.380;44.022;2023-03-14T00:55:45;7.57;;;3.45;;
77046;SDS011;65977;56.380;44.022;2023-03-14T00:58:13;6.32;;;3.08;;
77046;SDS011;65977;56.380;44.022;2023-03-14T01:00:42;3.97;;;3.08;;
77046;SDS011;65977;56.380;44.022;2023-03-14T01:03:09;6.90;;;2.83;;
77046;SDS011;65977;56.380;44.022;2023-03-14T01:05:37;6.38;;;2.90;;
77046;SDS011;65977;56.380;44.022;2023-03-14T01:08:05;5.47;;;2.63;;
77046;SDS011;65977;56.380;44.022;2023-03-14T01:10:34;8.05;;;3.67;;
77046;SDS011;65977;56.380;44.022;2023-03-14T01:13:04;5.22;;;3.05;;
77046;SDS011;65977;56.380;44.022;2023-03-14T01:15:34;4.30;;;3.17;;
77046;SDS011;65977;56.380;44.022;2023-03-14T01:18:02;5.15;;;3.17;;
77046;SDS011;65977;56.380;44.022;2023-03-14T01:20:30;5.30;;;2.72;;
77046;SDS011;65977;56.380;44.022;2023-03-14T01:22:57;4.38;;;1.80;;
77046;SDS011;65977;56.380;44.022;2023-03-14T01:25:24;6.68;;;4.00;;
77046;SDS011;65977;56.380;44.022;2023-03-14T01:27:52;4.28;;;2.53;;
77046;SDS011;65977;56.380;44.022;2023-03-14T01:30:18;6.00;;;2.35;;
77046;SDS011;65977;56.380;44.022;2023-03-14T01:32:46;5.35;;;2.88;;
77046;SDS011;65977;56.380;44.022;2023-03-14T01:35:15;6.50;;;3.90;;
77046;SDS011;65977;56.380;44.022;2023-03-14T01:37:42;5.22;;;3.42;;
77046;SDS011;65977;56.380;44.022;2023-03-14T01:40:10;4.75;;;3.42;;
77046;SDS011;65977;56.380;44.022;2023-03-14T01:42:38;6.53;;;3.70;;
77046;SDS011;65977;56.380;44.022;2023-03-14T01:48:15;5.70;;;3.53;;
77046;SDS011;65977;56.380;44.022;2023-03-14T01:50:41;5.53;;;3.15;;
77046;SDS011;65977;56.380;44.022;2023-03-14T01:53:08;4.05;;;2.72;;
77046;SDS011;65977;56.380;44.022;2023-03-14T01:55:36;6.22;;;3.08;;
77046;SDS011;65977;56.380;44.022;2023-03-14T01:58:03;5.45;;;2.97;;
77046;SDS011;65977;56.380;44.022;2023-03-14T02:00:31;5.15;;;3.47;;
77046;SDS011;65977;56.380;44.022;2023-03-14T02:03:00;4.85;;;2.63;;
77046;SDS011;65977;56.380;44.022;2023-03-14T02:05:32;3.33;;;2.08;;
77046;SDS011;65977;56.380;44.022;2023-03-14T02:08:08;8.60;;;4.85;;
77046;SDS011;65977;56.380;44.022;2023-03-14T02:10:41;7.60;;;3.13;;
77046;SDS011;65977;56.380;44.022;2023-03-14T02:13:11;7.15;;;3.28;;
77046;SDS011;65977;56.380;44.022;2023-03-14T02:15:40;7.97;;;4.50;;
77046;SDS011;65977;56.380;44.022;2023-03-14T02:18:08;6.40;;;4.47;;
77046;SDS011;65977;56.380;44.022;2023-03-14T02:23:17;5.85;;;3.35;;
77046;SDS011;65977;56.380;44.022;2023-03-14T02:26:06;7.43;;;3.75;;
77046;SDS011;65977;56.380;44.022;2023-03-14T02:28:38;6.10;;;3.35;;
77046;SDS011;65977;56.380;44.022;2023-03-14T02:31:05;6.03;;;3.20;;
77046;SDS011;65977;56.380;44.022;2023-03-14T02:33:35;5.60;;;3.80;;
77046;SDS011;65977;56.380;44.022;2023-03-14T02:36:05;5.43;;;3.47;;
77046;SDS011;65977;56.380;44.022;2023-03-14T02:41:07;7.00;;;3.28;;
77046;SDS011;65977;56.380;44.022;2023-03-14T02:43:34;4.28;;;2.97;;
77046;SDS011;65977;56.380;44.022;2023-03-14T02:46:01;6.50;;;4.13;;
77046;SDS011;65977;56.380;44.022;2023-03-14T02:48:38;4.57;;;3.40;;
77046;SDS011;65977;56.380;44.022;2023-03-14T02:51:09;4.88;;;3.47;;
77046;SDS011;65977;56.380;44.022;2023-03-14T02:53:37;6.10;;;3.38;;
77046;SDS011;65977;56.380;44.022;2023-03-14T02:56:05;6.75;;;3.63;;
77046;SDS011;65977;56.380;44.022;2023-03-14T02:58:32;3.20;;;2.13;;
77046;SDS011;65977;56.380;44.022;2023-03-14T03:01:00;4.68;;;3.08;;
77046;SDS011;65977;56.380;44.022;2023-03-14T03:03:27;9.57;;;3.20;;
77046;SDS011;65977;56.380;44.022;2023-03-14T03:05:54;6.65;;;3.58;;
77046;SDS011;65977;56.380;44.022;2023-03-14T03:08:23;6.20;;;4.07;;
77046;SDS011;65977;56.380;44.022;2023-03-14T03:10:53;5.45;;;3.33;;
77046;SDS011;65977;56.380;44.022;2023-03-14T03:13:21;10.25;;;4.93;;
77046;SDS011;65977;56.380;44.022;2023-03-14T03:15:48;7.57;;;4.53;;
77046;SDS011;65977;56.380;44.022;2023-03-14T03:18:15;9.50;;;4.68;;
77046;SDS011;65977;56.380;44.022;2023-03-14T03:20:42;6.75;;;5.20;;
77046;SDS011;65977;56.380;44.022;2023-03-14T03:23:09;7.95;;;4.60;;
77046;SDS011;65977;56.380;44.022;2023-03-14T03:25:36;9.20;;;4.82;;
77046;SDS011;65977;56.380;44.022;2023-03-14T03:28:03;6.78;;;4.38;;
77046;SDS011;65977;56.380;44.022;2023-03-14T03:30:40;8.13;;;5.78;;
77046;SDS011;65977;56.380;44.022;2023-03-14T03:33:08;7.45;;;4.63;;
77046;SDS011;65977;56.380;44.022;2023-03-14T03:35:41;11.20;;;5.03;;
77046;SDS011;65977;56.380;44.022;2023-03-14T03:38:12;8.68;;;4.47;;
77046;SDS011;65977;56.380;44.022;2023-03-14T03:40:40;9.07;;;4.93;;
77046;SDS011;65977;56.380;44.022;2023-03-14T03:43:07;7.20;;;3.88;;
77046;SDS011;65977;56.380;44.022;2023-03-14T03:45:34;7.22;;;3.40;;
77046;SDS011;65977;56.380;44.022;2023-03-14T03:48:01;6.10;;;4.18;;
77046;SDS011;65977;56.380;44.022;2023-03-14T03:50:28;7.22;;;4.50;;
77046;SDS011;65977;56.380;44.022;2023-03-14T03:52:55;5.03;;;3.35;;
77046;SDS011;65977;56.380;44.022;2023-03-14T03:55:22;6.55;;;3.97;;
77046;SDS011;65977;56.380;44.022;2023-03-14T03:57:49;6.65;;;3.80;;
77046;SDS011;65977;56.380;44.022;2023-03-14T04:00:16;5.18;;;2.88;;
77046;SDS011;65977;56.380;44.022;2023-03-14T04:02:43;8.13;;;4.45;;
77046;SDS011;65977;56.380;44.022;2023-03-14T04:05:11;3.67;;;2.85;;
77046;SDS011;65977;56.380;44.022;2023-03-14T04:07:38;8.85;;;4.63;;
77046;SDS011;65977;56.380;44.022;2023-03-14T04:10:05;7.32;;;4.22;;
77046;SDS011;65977;56.380;44.022;2023-03-14T04:12:33;6.90;;;3.65;;
77046;SDS011;65977;56.380;44.022;2023-03-14T04:15:00;6.90;;;4.15;;
77046;SDS011;65977;56.380;44.022;2023-03-14T04:17:28;6.20;;;4.22;;
77046;SDS011;65977;56.380;44.022;2023-03-14T04:19:56;8.88;;;4.75;;
77046;SDS011;65977;56.380;44.022;2023-03-14T04:22:23;9.05;;;5.72;;
77046;SDS011;65977;56.380;44.022;2023-03-14T04:24:50;7.78;;;3.70;;
77046;SDS011;65977;56.380;44.022;2023-03-14T04:27:17;5.95;;;3.40;;
77046;SDS011;65977;56.380;44.022;2023-03-14T04:29:44;6.35;;;3.28;;
77046;SDS011;65977;56.380;44.022;2023-03-14T04:32:11;9.40;;;3.40;;
77046;SDS011;65977;56.380;44.022;2023-03-14T04:34:38;6.57;;;3.45;;
77046;SDS011;65977;56.380;44.022;2023-03-14T04:37:05;5.32;;;3.35;;
77046;SDS011;65977;56.380;44.022;2023-03-14T04:39:32;5.20;;;3.67;;
77046;SDS011;65977;56.380;44.022;2023-03-14T04:41:59;5.38;;;3.35;;
77046;SDS011;65977;56.380;44.022;2023-03-14T04:44:26;10.43;;;3.40;;
77046;SDS011;65977;56.380;44.022;2023-03-14T04:46:53;4.53;;;3.35;;
77046;SDS011;65977;56.380;44.022;2023-03-14T04:49:21;5.28;;;3.42;;
77046;SDS011;65977;56.380;44.022;2023-03-14T04:51:48;5.28;;;2.90;;
77046;SDS011;65977;56.380;44.022;2023-03-14T04:54:17;4.85;;;3.50;;
77046;SDS011;65977;56.380;44.022;2023-03-14T04:56:44;4.43;;;2.78;;
77046;SDS011;65977;56.380;44.022;2023-03-14T04:59:11;4.05;;;2.65;;
77046;SDS011;65977;56.380;44.022;2023-03-14T05:01:38;5.75;;;3.25;;
77046;SDS011;65977;56.380;44.022;2023-03-14T05:04:05;5.53;;;3.28;;
77046;SDS011;65977;56.380;44.022;2023-03-14T05:06:32;3.90;;;2.65;;
77046;SDS011;65977;56.380;44.022;2023-03-14T05:08:59;4.97;;;2.90;;
77046;SDS011;65977;56.380;44.022;2023-03-14T05:11:26;5.05;;;3.88;;
77046;SDS011;65977;56.380;44.022;2023-03-14T05:13:53;7.40;;;3.50;;
77046;SDS011;65977;56.380;44.022;2023-03-14T05:16:20;8.07;;;3.10;;
77046;SDS011;65977;56.380;44.022;2023-03-14T05:18:47;7.30;;;3.95;;
77046;SDS011;65977;56.380;44.022;2023-03-14T05:21:14;8.98;;;4.22;;
77046;SDS011;65977;56.380;44.022;2023-03-14T05:23:41;13.90;;;4.10;;
77046;SDS011;65977;56.380;44.022;2023-03-14T05:26:08;6.68;;;3.58;;
77046;SDS011;65977;56.380;44.022;2023-03-14T05:28:36;5.47;;;3.00;;
77046;SDS011;65977;56.380;44.022;2023-03-14T05:31:05;7.68;;;3.30;;
77046;SDS011;65977;56.380;44.022;2023-03-14T05:33:33;5.75;;;3.13;;
77046;SDS011;65977;56.380;44.022;2023-03-14T05:36:00;4.97;;;3.30;;
77046;SDS011;65977;56.380;44.022;2023-03-14T05:38:28;4.78;;;3.05;;
77046;SDS011;65977;56.380;44.022;2023-03-14T05:40:55;4.85;;;3.20;;
77046;SDS011;65977;56.380;44.022;2023-03-14T05:43:22;6.30;;;2.67;;
77046;SDS011;65977;56.380;44.022;2023-03-14T05:45:49;4.22;;;3.00;;
77046;SDS011;65977;56.380;44.022;2023-03-14T05:48:16;4.50;;;2.90;;
77046;SDS011;65977;56.380;44.022;2023-03-14T05:50:43;4.57;;;2.78;;
77046;SDS011;65977;56.380;44.022;2023-03-14T05:53:10;3.58;;;2.42;;
77046;SDS011;65977;56.380;44.022;2023-03-14T05:55:38;3.28;;;2.20;;
77046;SDS011;65977;56.380;44.022;2023-03-14T05:58:06;2.63;;;1.73;;
77046;SDS011;65977;56.380;44.022;2023-03-14T06:00:33;3.67;;;2.15;;
77046;SDS011;65977;56.380;44.022;2023-03-14T06:03:00;4.03;;;2.72;;
77046;SDS011;65977;56.380;44.022;2023-03-14T06:05:27;3.22;;;2.30;;
77046;SDS011;65977;56.380;44.022;2023-03-14T06:07:54;4.25;;;2.38;;
77046;SDS011;65977;56.380;44.022;2023-03-14T06:10:21;3.72;;;2.67;;
77046;SDS011;65977;56.380;44.022;2023-03-14T06:12:48;4.03;;;2.72;;
77046;SDS011;65977;56.380;44.022;2023-03-14T06:15:15;4.05;;;2.50;;
77046;SDS011;65977;56.380;44.022;2023-03-14T06:17:42;3.92;;;2.30;;
77046;SDS011;65977;56.380;44.022;2023-03-14T06:20:09;3.60;;;2.53;;
77046;SDS011;65977;56.380;44.022;2023-03-14T06:22:37;3.85;;;2.67;;
77046;SDS011;65977;56.380;44.022;2023-03-14T06:25:06;4.72;;;2.70;;
77046;SDS011;65977;56.380;44.022;2023-03-14T06:27:33;3.72;;;2.33;;
77046;SDS011;65977;56.380;44.022;2023-03-14T06:30:00;3.10;;;2.03;;
77046;SDS011;65977;56.380;44.022;2023-03-14T06:32:29;5.07;;;2.58;;
77046;SDS011;65977;56.380;44.022;2023-03-14T06:34:56;5.18;;;2.25;;
77046;SDS011;65977;56.380;44.022;2023-03-14T06:37:28;2.55;;;1.67;;
77046;SDS011;65977;56.380;44.022;2023-03-14T06:39:55;4.43;;;1.75;;
77046;SDS011;65977;56.380;44.022;2023-03-14T06:42:22;4.55;;;2.55;;
77046;SDS011;65977;56.380;44.022;2023-03-14T06:44:49;3.78;;;1.92;;
77046;SDS011;65977;56.380;44.022;2023-03-14T06:47:17;2.55;;;1.90;;
77046;SDS011;65977;56.380;44.022;2023-03-14T06:49:44;4.25;;;2.35;;
77046;SDS011;65977;56.380;44.022;2023-03-14T06:52:11;3.88;;;2.55;;
77046;SDS011;65977;56.380;44.022;2023-03-14T06:54:38;3.05;;;1.88;;
77046;SDS011;65977;56.380;44.022;2023-03-14T06:57:05;3.90;;;1.98;;
77046;SDS011;65977;56.380;44.022;2023-03-14T06:59:32;2.95;;;2.33;;
77046;SDS011;65977;56.380;44.022;2023-03-14T07:01:59;4.85;;;1.80;;
77046;SDS011;65977;56.380;44.022;2023-03-14T07:04:26;2.25;;;1.63;;
77046;SDS011;65977;56.380;44.022;2023-03-14T07:06:53;3.50;;;1.50;;
77046;SDS011;65977;56.380;44.022;2023-03-14T07:09:20;3.35;;;1.95;;
77046;SDS011;65977;56.380;44.022;2023-03-14T07:11:47;1.80;;;1.10;;
77046;SDS011;65977;56.380;44.022;2023-03-14T07:14:15;3.00;;;1.50;;
77046;SDS011;65977;56.380;44.022;2023-03-14T07:16:42;3.22;;;1.83;;
77046;SDS011;65977;56.380;44.022;2023-03-14T07:19:09;2.95;;;1.88;;
77046;SDS011;65977;56.380;44.022;2023-03-14T07:21:36;2.80;;;1.50;;
77046;SDS011;65977;56.380;44.022;2023-03-14T07:24:03;3.25;;;1.63;;
77046;SDS011;65977;56.380;44.022;2023-03-14T07:26:30;2.45;;;1.52;;
77046;SDS011;65977;56.380;44.022;2023-03-14T07:28:57;2.28;;;1.55;;
77046;SDS011;65977;56.380;44.022;2023-03-14T07:31:24;3.50;;;1.00;;
77046;SDS011;65977;56.380;44.022;2023-03-14T07:33:51;5.93;;;1.95;;
77046;SDS011;65977;56.380;44.022;2023-03-14T07:36:18;1.77;;;1.25;;
77046;SDS011;65977;56.380;44.022;2023-03-14T07:38:45;2.83;;;1.70;;
77046;SDS011;65977;56.380;44.022;2023-03-14T07:41:13;2.45;;;1.40;;
77046;SDS011;65977;56.380;44.022;2023-03-14T07:43:40;3.45;;;1.63;;
77046;SDS011;65977;56.380;44.022;2023-03-14T07:46:07;1.90;;;1.20;;
77046;SDS011;65977;56.380;44.022;2023-03-14T07:48:34;2.20;;;1.35;;
77046;SDS011;65977;56.380;44.022;2023-03-14T07:51:02;3.22;;;1.33;;
77046;SDS011;65977;56.380;44.022;2023-03-14T07:53:29;2.05;;;1.55;;
77046;SDS011;65977;56.380;44.022;2023-03-14T07:55:56;2.92;;;1.52;;
77046;SDS011;65977;56.380;44.022;2023-03-14T07:58:23;1.98;;;1.38;;
77046;SDS011;65977;56.380;44.022;2023-03-14T08:00:50;3.78;;;1.70;;
77046;SDS011;65977;56.380;44.022;2023-03-14T08:03:18;3.38;;;1.60;;
77046;SDS011;65977;56.380;44.022;2023-03-14T08:05:49;2.35;;;1.27;;
77046;SDS011;65977;56.380;44.022;2023-03-14T08:08:17;3.83;;;2.05;;
77046;SDS011;65977;56.380;44.022;2023-03-14T08:10:45;2.63;;;1.42;;
77046;SDS011;65977;56.380;44.022;2023-03-14T08:13:13;3.70;;;1.50;;
77046;SDS011;65977;56.380;44.022;2023-03-14T08:15:40;2.38;;;1.40;;
77046;SDS011;65977;56.380;44.022;2023-03-14T08:18:08;1.98;;;1.25;;
77046;SDS011;65977;56.380;44.022;2023-03-14T08:20:35;2.25;;;1.27;;
77046;SDS011;65977;56.380;44.022;2023-03-14T08:23:02;4.32;;;1.90;;
77046;SDS011;65977;56.380;44.022;2023-03-14T08:25:29;5.22;;;1.73;;
77046;SDS011;65977;56.380;44.022;2023-03-14T08:27:57;2.58;;;1.42;;
77046;SDS011;65977;56.380;44.022;2023-03-14T08:30:24;2.63;;;1.45;;
77046;SDS011;65977;56.380;44.022;2023-03-14T08:32:52;1.58;;;1.08;;
77046;SDS011;65977;56.380;44.022;2023-03-14T08:35:20;1.55;;;1.15;;
77046;SDS011;65977;56.380;44.022;2023-03-14T08:37:47;2.85;;;1.55;;
77046;SDS011;65977;56.380;44.022;2023-03-14T08:40:14;4.00;;;1.75;;
77046;SDS011;65977;56.380;44.022;2023-03-14T08:42:43;2.70;;;1.75;;
77046;SDS011;65977;56.380;44.022;2023-03-14T08:45:12;4.07;;;1.60;;
77046;SDS011;65977;56.380;44.022;2023-03-14T08:47:41;3.58;;;1.40;;
77046;SDS011;65977;56.380;44.022;2023-03-14T08:50:09;2.40;;;1.38;;
77046;SDS011;65977;56.380;44.022;2023-03-14T08:52:41;2.35;;;1.40;;
77046;SDS011;65977;56.380;44.022;2023-03-14T08:55:09;3.97;;;1.27;;
77046;SDS011;65977;56.380;44.022;2023-03-14T08:57:37;3.35;;;1.45;;
77046;SDS011;65977;56.380;44.022;2023-03-14T09:00:05;0.80;;;0.70;;
77046;SDS011;65977;56.380;44.022;2023-03-14T09:02:37;1.95;;;1.00;;
77046;SDS011;65977;56.380;44.022;2023-03-14T09:05:04;2.58;;;1.23;;
77046;SDS011;65977;56.380;44.022;2023-03-14T09:07:32;3.85;;;1.10;;
77046;SDS011;65977;56.380;44.022;2023-03-14T09:09:59;1.40;;;1.05;;
77046;SDS011;65977;56.380;44.022;2023-03-14T09:12:28;2.30;;;1.33;;
77046;SDS011;65977;56.380;44.022;2023-03-14T09:14:55;2.28;;;1.10;;
77046;SDS011;65977;56.380;44.022;2023-03-14T09:17:22;2.45;;;1.38;;
77046;SDS011;65977;56.380;44.022;2023-03-14T09:19:49;2.63;;;1.15;;
77046;SDS011;65977;56.380;44.022;2023-03-14T09:22:16;4.22;;;1.13;;
77046;SDS011;65977;56.380;44.022;2023-03-14T09:24:43;1.73;;;1.10;;
77046;SDS011;65977;56.380;44.022;2023-03-14T09:27:10;1.88;;;1.00;;
77046;SDS011;65977;56.380;44.022;2023-03-14T09:29:37;2.25;;;1.38;;
77046;SDS011;65977;56.380;44.022;2023-03-14T09:32:04;1.85;;;1.25;;
77046;SDS011;65977;56.380;44.022;2023-03-14T09:34:32;1.90;;;1.30;;
77046;SDS011;65977;56.380;44.022;2023-03-14T09:37:02;3.20;;;2.25;;
77046;SDS011;65977;56.380;44.022;2023-03-14T09:39:29;3.80;;;2.00;;
77046;SDS011;65977;56.380;44.022;2023-03-14T09:41:56;4.00;;;1.63;;
77046;SDS011;65977;56.380;44.022;2023-03-14T09:44:29;4.25;;;1.35;;
77046;SDS011;65977;56.380;44.022;2023-03-14T09:47:02;1.50;;;1.00;;
77046;SDS011;65977;56.380;44.022;2023-03-14T09:49:41;2.25;;;1.20;;
77046;SDS011;65977;56.380;44.022;2023-03-14T09:54:43;2.97;;;1.80;;
77046;SDS011;65977;56.380;44.022;2023-03-14T09:57:15;2.17;;;1.25;;
77046;SDS011;65977;56.380;44.022;2023-03-14T09:59:45;2.50;;;1.67;;
77046;SDS011;65977;56.380;44.022;2023-03-14T10:02:33;3.05;;;1.80;;
77046;SDS011;65977;56.380;44.022;2023-03-14T10:05:04;3.35;;;1.45;;
77046;SDS011;65977;56.380;44.022;2023-03-14T10:07:34;2.72;;;1.25;;
77046;SDS011;65977;56.380;44.022;2023-03-14T10:10:08;2.33;;;1.35;;
77046;SDS011;65977;56.380;44.022;2023-03-14T10:12:38;5.70;;;2.15;;
77046;SDS011;65977;56.380;44.022;2023-03-14T10:15:09;2.92;;;1.70;;
77046;SDS011;65977;56.380;44.022;2023-03-14T10:17:40;9.95;;;1.42;;
77046;SDS011;65977;56.380;44.022;2023-03-14T10:23:02;1.73;;;1.20;;
77046;SDS011;65977;56.380;44.022;2023-03-14T10:25:32;3.40;;;1.55;;
77046;SDS011;65977;56.380;44.022;2023-03-14T10:28:01;6.05;;;1.65;;
77046;SDS011;65977;56.380;44.022;2023-03-14T10:30:33;2.63;;;1.50;;
77046;SDS011;65977;56.380;44.022;2023-03-14T10:33:23;3.92;;;2.13;;
77046;SDS011;65977;56.380;44.022;2023-03-14T10:36:00;4.00;;;2.15;;
77046;SDS011;65977;56.380;44.022;2023-03-14T10:38:47;1.60;;;1.17;;
77046;SDS011;65977;56.380;44.022;2023-03-14T10:41:25;3.08;;;1.20;;
77046;SDS011;65977;56.380;44.022;2023-03-14T10:43:53;3.13;;;1.63;;
77046;SDS011;65977;56.380;44.022;2023-03-14T10:46:24;4.05;;;1.90;;
77046;SDS011;65977;56.380;44.022;2023-03-14T10:48:53;2.70;;;1.55;;
77046;SDS011;65977;56.380;44.022;2023-03-14T10:51:27;7.55;;;1.92;;
77046;SDS011;65977;56.380;44.022;2023-03-14T10:54:19;5.30;;;2.42;;
77046;SDS011;65977;56.380;44.022;2023-03-14T10:57:00;3.13;;;1.80;;
77046;SDS011;65977;56.380;44.022;2023-03-14T10:59:35;3.20;;;1.48;;
77046;SDS011;65977;56.380;44.022;2023-03-14T11:05:09;3.40;;;1.80;;
77046;SDS011;65977;56.380;44.022;2023-03-14T11:07:46;2.60;;;1.75;;
77046;SDS011;65977;56.380;44.022;2023-03-14T11:10:21;4.38;;;1.85;;
77046;SDS011;65977;56.380;44.022;2023-03-14T11:19:55;3.55;;;2.03;;
77046;SDS011;65977;56.380;44.022;2023-03-14T11:24:53;3.45;;;2.03;;
77046;SDS011;65977;56.380;44.022;2023-03-14T11:30:20;4.07;;;1.75;;
77046;SDS011;65977;56.380;44.022;2023-03-14T11:35:31;3.97;;;2.08;;
77046;SDS011;65977;56.380;44.022;2023-03-14T11:40:42;3.20;;;1.70;;
77046;SDS011;65977;56.380;44.022;2023-03-14T11:45:41;7.57;;;2.00;;
77046;SDS011;65977;56.380;44.022;2023-03-14T11:50:49;4.32;;;2.08;;
77046;SDS011;65977;56.380;44.022;2023-03-14T11:55:48;2.75;;;1.83;;
77046;SDS011;65977;56.380;44.022;2023-03-14T12:00:52;3.45;;;1.67;;
77046;SDS011;65977;56.380;44.022;2023-03-14T12:03:24;2.78;;;1.48;;
77046;SDS011;65977;56.380;44.022;2023-03-14T12:08:46;2.42;;;1.33;;
77046;SDS011;65977;56.380;44.022;2023-03-14T12:13:50;2.95;;;1.70;;
77046;SDS011;65977;56.380;44.022;2023-03-14T12:18:50;3.20;;;1.63;;
77046;SDS011;65977;56.380;44.022;2023-03-14T12:21:18;2.47;;;1.35;;
77046;SDS011;65977;56.380;44.022;2023-03-14T12:23:53;3.00;;;1.63;;
77046;SDS011;65977;56.380;44.022;2023-03-14T12:28:52;3.08;;;1.48;;
77046;SDS011;65977;56.380;44.022;2023-03-14T12:42:17;6.05;;;1.70;;
77046;SDS011;65977;56.380;44.022;2023-03-14T12:56:20;4.85;;;2.03;;
77046;SDS011;65977;56.380;44.022;2023-03-14T13:01:45;2.90;;;1.80;;
77046;SDS011;65977;56.380;44.022;2023-03-14T13:04:25;3.30;;;2.05;;
77046;SDS011;65977;56.380;44.022;2023-03-14T13:07:13;3.28;;;1.90;;
77046;SDS011;65977;56.380;44.022;2023-03-14T13:12:29;4.03;;;2.00;;
77046;SDS011;65977;56.380;44.022;2023-03-14T13:15:11;6.68;;;1.83;;
77046;SDS011;65977;56.380;44.022;2023-03-14T13:17:43;6.13;;;1.77;;
77046;SDS011;65977;56.380;44.022;2023-03-14T13:20:15;3.97;;;1.70;;
77046;SDS011;65977;56.380;44.022;2023-03-14T13:22:49;3.92;;;1.85;;
77046;SDS011;65977;56.380;44.022;2023-03-14T13:25:17;3.60;;;1.98;;
77046;SDS011;65977;56.380;44.022;2023-03-14T13:27:45;3.00;;;1.67;;
77046;SDS011;65977;56.380;44.022;2023-03-14T13:30:22;4.47;;;2.30;;
77046;SDS011;65977;56.380;44.022;2023-03-14T13:32:52;2.38;;;1.25;;
77046;SDS011;65977;56.380;44.022;2023-03-14T13:35:37;3.95;;;2.20;;
77046;SDS011;65977;56.380;44.022;2023-03-14T13:38:20;8.52;;;1.73;;
77046;SDS011;65977;56.380;44.022;2023-03-14T13:40:50;2.50;;;1.48;;
77046;SDS011;65977;56.380;44.022;2023-03-14T13:43:30;2.60;;;1.70;;
77046;SDS011;65977;56.380;44.022;2023-03-14T13:46:07;2.55;;;1.45;;
77046;SDS011;65977;56.380;44.022;2023-03-14T13:48:44;4.20;;;2.17;;
77046;SDS011;65977;56.380;44.022;2023-03-14T13:51:17;4.78;;;1.42;;
77046;SDS011;65977;56.380;44.022;2023-03-14T13:53:46;3.75;;;1.63;;
77046;SDS011;65977;56.380;44.022;2023-03-14T13:56:19;3.83;;;1.70;;
77046;SDS011;65977;56.380;44.022;2023-03-14T13:58:50;2.75;;;1.80;;
77046;SDS011;65977;56.380;44.022;2023-03-14T14:01:25;4.13;;;2.20;;
77046;SDS011;65977;56.380;44.022;2023-03-14T14:04:13;9.25;;;3.00;;
77046;SDS011;65977;56.380;44.022;2023-03-14T14:09:19;3.50;;;1.88;;
77046;SDS011;65977;56.380;44.022;2023-03-14T14:11:56;8.68;;;4.05;;
77046;SDS011;65977;56.380;44.022;2023-03-14T14:17:27;3.40;;;2.08;;
77046;SDS011;65977;56.380;44.022;2023-03-14T14:20:02;4.85;;;2.50;;
77046;SDS011;65977;56.380;44.022;2023-03-14T14:22:32;4.25;;;2.80;;
77046;SDS011;65977;56.380;44.022;2023-03-14T14:25:00;4.07;;;2.35;;
77046;SDS011;65977;56.380;44.022;2023-03-14T14:27:43;5.88;;;3.20;;
77046;SDS011;65977;56.380;44.022;2023-03-14T14:30:32;6.10;;;3.60;;
77046;SDS011;65977;56.380;44.022;2023-03-14T14:33:19;3.35;;;2.40;;
77046;SDS011;65977;56.380;44.022;2023-03-14T14:35:57;8.80;;;2.92;;
77046;SDS011;65977;56.380;44.022;2023-03-14T14:38:27;2.92;;;1.90;;
77046;SDS011;65977;56.380;44.022;2023-03-14T14:40:59;5.68;;;2.58;;
77046;SDS011;65977;56.380;44.022;2023-03-14T14:43:30;3.85;;;2.13;;
77046;SDS011;65977;56.380;44.022;2023-03-14T14:46:00;8.10;;;3.08;;
77046;SDS011;65977;56.380;44.022;2023-03-14T14:48:30;6.63;;;3.38;;
77046;SDS011;65977;56.380;44.022;2023-03-14T14:51:05;8.93;;;3.47;;
77046;SDS011;65977;56.380;44.022;2023-03-14T14:56:19;4.95;;;2.30;;
77046;SDS011;65977;56.380;44.022;2023-03-14T14:58:56;5.70;;;2.50;;
77046;SDS011;65977;56.380;44.022;2023-03-14T15:01:30;7.13;;;2.50;;
77046;SDS011;65977;56.380;44.022;2023-03-14T15:04:15;5.03;;;2.80;;
77046;SDS011;65977;56.380;44.022;2023-03-14T15:06:43;7.63;;;4.10;;
77046;SDS011;65977;56.380;44.022;2023-03-14T15:09:12;4.47;;;2.47;;
77046;SDS011;65977;56.380;44.022;2023-03-14T15:11:40;4.55;;;2.40;;
77046;SDS011;65977;56.380;44.022;2023-03-14T15:14:07;6.50;;;3.13;;
77046;SDS011;65977;56.380;44.022;2023-03-14T15:16:34;6.75;;;3.13;;
77046;SDS011;65977;56.380;44.022;2023-03-14T15:19:02;4.18;;;2.78;;
77046;SDS011;65977;56.380;44.022;2023-03-14T15:21:50;4.00;;;2.60;;
77046;SDS011;65977;56.380;44.022;2023-03-14T15:24:19;3.65;;;2.33;;
77046;SDS011;65977;56.380;44.022;2023-03-14T15:26:46;3.35;;;2.00;;
77046;SDS011;65977;56.380;44.022;2023-03-14T15:29:13;3.75;;;2.10;;
77046;SDS011;65977;56.380;44.022;2023-03-14T15:31:40;3.25;;;2.08;;
77046;SDS011;65977;56.380;44.022;2023-03-14T15:34:09;5.72;;;2.47;;
77046;SDS011;65977;56.380;44.022;2023-03-14T15:36:37;2.85;;;1.92;;
77046;SDS011;65977;56.380;44.022;2023-03-14T15:39:05;6.90;;;3.33;;
77046;SDS011;65977;56.380;44.022;2023-03-14T15:41:33;9.82;;;4.70;;
77046;SDS011;65977;56.380;44.022;2023-03-14T15:44:00;5.38;;;3.15;;
77046;SDS011;65977;56.380;44.022;2023-03-14T15:46:27;6.80;;;3.92;;
77046;SDS011;65977;56.380;44.022;2023-03-14T15:48:56;7.32;;;4.25;;
77046;SDS011;65977;56.380;44.022;2023-03-14T15:51:23;4.43;;;2.90;;
77046;SDS011;65977;56.380;44.022;2023-03-14T15:53:51;7.35;;;3.08;;
77046;SDS011;65977;56.380;44.022;2023-03-14T15:56:18;4.10;;;2.80;;
77046;SDS011;65977;56.380;44.022;2023-03-14T15:58:46;5.30;;;2.28;;
77046;SDS011;65977;56.380;44.022;2023-03-14T16:01:14;3.83;;;2.20;;
77046;SDS011;65977;56.380;44.022;2023-03-14T16:03:45;6.70;;;2.55;;
77046;SDS011;65977;56.380;44.022;2023-03-14T16:06:13;3.92;;;2.70;;
77046;SDS011;65977;56.380;44.022;2023-03-14T16:08:41;4.22;;;2.45;;
77046;SDS011;65977;56.380;44.022;2023-03-14T16:11:11;7.30;;;2.40;;
77046;SDS011;65977;56.380;44.022;2023-03-14T16:13:40;3.67;;;2.38;;
77046;SDS011;65977;56.380;44.022;2023-03-14T16:16:08;3.90;;;2.35;;
77046;SDS011;65977;56.380;44.022;2023-03-14T16:18:36;6.72;;;3.00;;